WXM80 ListenWXM80 Stop

You find our weather info also at:

UK Metoffice

WeatherCloud

Weather Underground

Northeastern Weather Network

AWEKAS

Citizen Weather Observer Program (CWOP)

HAMweather, WeatherForYou, PWS Weather


Weather Underground History page Text

Daily Summary for December 31, 2017 Units:  Both    English   Metric
« Previous Day
Next Day »
Daily Weekly Monthly Yearly Custom
  High: Low: Average:
Temperature: TemperatureF °F /  -17.8 °C 10.9 °F /  -11.7 °C 16.4 °F /  -8.7 °C
Dew Point: DewpointF °F /  -17.8 °C 0.9 °F /  -17.3 °C 5.7 °F /  -14.6 °C
Humidity: Humidity % 51 % 62 %
Wind Speed: WindSpeedMPH mph /  0 km/h - 5.9 mph /  9.5 km/h
Wind Gust: WindSpeedGustMPH mph /  0 km/h - -
Wind:- - WNW
Pressure: PressureIn in /  0 hPa 30.01 in /  1016.1 hPa -
Precipitation: 0.00 in /  0 mm    
Historical Graphs
 
 
Tabular Data for December 31, 2017
Time Temperature Dew Point Pressure Wind Wind Speed Wind Gust Humidity Rainfall Rate (Hourly)
TemperatureF °F /  -17.8 °C DewpointF °F /  -17.8 °C PressureIn in /  0 hPa Calm     Humidity % HourlyPrecipIn in /  0 mm
00:02 22.6 °F /  -5.2 °C 16.8 °F /  -8.4 °C 30.02 in /  1016.5 hPa West 3.7 mph /  6 km/h 13.8 mph /  22.2 km/h 78 % 0.00 in /  0 mm
00:07 22.5 °F /  -5.3 °C 15.8 °F /  -9 °C 30.01 in /  1016.1 hPa WNW 7.8 mph /  12.6 km/h 15.0 mph /  24.1 km/h 75 % 0.00 in /  0 mm
00:12 22.4 °F /  -5.3 °C 15.4 °F /  -9.2 °C 30.02 in /  1016.5 hPa WNW 5.9 mph /  9.5 km/h 9.2 mph /  14.8 km/h 74 % 0.00 in /  0 mm
00:13 22.4 °F /  -5.3 °C 15.4 °F /  -9.2 °C 30.02 in /  1016.5 hPa WNW 6.7 mph /  10.8 km/h 11.5 mph /  18.5 km/h 74 % 0.00 in /  0 mm
00:16 22.4 °F /  -5.3 °C 15.7 °F /  -9.1 °C 30.02 in /  1016.5 hPa West 5.0 mph /  8 km/h 12.0 mph /  19.3 km/h 75 % 0.00 in /  0 mm
00:21 22.3 °F /  -5.4 °C 15.6 °F /  -9.1 °C 30.02 in /  1016.5 hPa West 6.0 mph /  9.7 km/h 13.0 mph /  20.9 km/h 75 % 0.00 in /  0 mm
00:23 22.2 °F /  -5.4 °C 15.2 °F /  -9.3 °C 30.03 in /  1016.8 hPa NW 8.6 mph /  13.8 km/h 12.7 mph /  20.4 km/h 74 % 0.00 in /  0 mm
00:27 22.1 °F /  -5.5 °C 14.8 °F /  -9.6 °C 30.03 in /  1016.8 hPa West 9.3 mph /  15 km/h 15.0 mph /  24.1 km/h 73 % 0.00 in /  0 mm
00:32 22.0 °F /  -5.6 °C 14.3 °F /  -9.8 °C 30.03 in /  1016.8 hPa North 8.7 mph /  14 km/h 15.0 mph /  24.1 km/h 72 % 0.00 in /  0 mm
00:36 21.9 °F /  -5.6 °C 14.3 °F /  -9.8 °C 30.03 in /  1016.8 hPa WNW 6.2 mph /  10 km/h 12.7 mph /  20.4 km/h 72 % 0.00 in /  0 mm
00:39 21.9 °F /  -5.6 °C 14.6 °F /  -9.7 °C 30.03 in /  1016.8 hPa NW 9.8 mph /  15.8 km/h 18.4 mph /  29.6 km/h 73 % 0.00 in /  0 mm
00:42 21.8 °F /  -5.7 °C 14.5 °F /  -9.7 °C 30.03 in /  1016.8 hPa West 8.5 mph /  13.7 km/h 12.7 mph /  20.4 km/h 73 % 0.00 in /  0 mm
00:46 21.8 °F /  -5.7 °C 14.5 °F /  -9.7 °C 30.03 in /  1016.8 hPa WNW 7.2 mph /  11.6 km/h 10.4 mph /  16.7 km/h 73 % 0.00 in /  0 mm
00:48 21.7 °F /  -5.7 °C 14.4 °F /  -9.8 °C 30.03 in /  1016.8 hPa WNW 9.6 mph /  15.4 km/h 19.0 mph /  30.6 km/h 73 % 0.00 in /  0 mm
00:53 21.6 °F /  -5.8 °C 14.3 °F /  -9.8 °C 30.03 in /  1016.8 hPa WNW 5.9 mph /  9.5 km/h 15.0 mph /  24.1 km/h 73 % 0.00 in /  0 mm
00:59 21.6 °F /  -5.8 °C 14.3 °F /  -9.8 °C 30.04 in /  1017.2 hPa WNW 3.5 mph /  5.6 km/h 15.0 mph /  24.1 km/h 73 % 0.00 in /  0 mm
01:02 21.6 °F /  -5.8 °C 14.3 °F /  -9.8 °C 30.04 in /  1017.2 hPa WNW 7.3 mph /  11.7 km/h 11.5 mph /  18.5 km/h 73 % 0.00 in /  0 mm
01:05 21.5 °F /  -5.8 °C 14.2 °F /  -9.9 °C 30.03 in /  1016.8 hPa NW 7.5 mph /  12.1 km/h 13.0 mph /  20.9 km/h 73 % 0.00 in /  0 mm
01:08 21.5 °F /  -5.8 °C 14.2 °F /  -9.9 °C 30.04 in /  1017.2 hPa North 8.9 mph /  14.3 km/h 16.1 mph /  25.9 km/h 73 % 0.00 in /  0 mm
01:13 21.5 °F /  -5.8 °C 13.9 °F /  -10.1 °C 30.04 in /  1017.2 hPa WNW 8.1 mph /  13 km/h 11.0 mph /  17.7 km/h 72 % 0.00 in /  0 mm
01:16 21.4 °F /  -5.9 °C 13.8 °F /  -10.1 °C 30.04 in /  1017.2 hPa West 9.4 mph /  15.1 km/h 18.4 mph /  29.6 km/h 72 % 0.00 in /  0 mm
01:21 21.4 °F /  -5.9 °C 13.8 °F /  -10.1 °C 30.03 in /  1016.8 hPa NW 7.6 mph /  12.2 km/h 15.0 mph /  24.1 km/h 72 % 0.00 in /  0 mm
01:26 21.4 °F /  -5.9 °C 14.1 °F /  -9.9 °C 30.04 in /  1017.2 hPa NW 6.0 mph /  9.7 km/h 18.0 mph /  29 km/h 73 % 0.00 in /  0 mm
01:31 21.4 °F /  -5.9 °C 13.8 °F /  -10.1 °C 30.03 in /  1016.8 hPa WNW 6.4 mph /  10.3 km/h 15.0 mph /  24.1 km/h 72 % 0.00 in /  0 mm
01:36 21.4 °F /  -5.9 °C 14.1 °F /  -9.9 °C 30.04 in /  1017.2 hPa WNW 7.7 mph /  12.4 km/h 13.8 mph /  22.2 km/h 73 % 0.00 in /  0 mm
01:41 21.3 °F /  -5.9 °C 14.0 °F /  -10 °C 30.04 in /  1017.2 hPa SW 4.6 mph /  7.4 km/h 12.0 mph /  19.3 km/h 73 % 0.00 in /  0 mm
01:42 21.3 °F /  -5.9 °C 14.0 °F /  -10 °C 30.04 in /  1017.2 hPa WNW 8.6 mph /  13.8 km/h 12.7 mph /  20.4 km/h 73 % 0.00 in /  0 mm
01:47 21.3 °F /  -5.9 °C 13.7 °F /  -10.2 °C 30.04 in /  1017.2 hPa WNW 5.6 mph /  9 km/h 15.0 mph /  24.1 km/h 72 % 0.00 in /  0 mm
01:49 21.2 °F /  -6 °C 13.6 °F /  -10.2 °C 30.04 in /  1017.2 hPa NW 6.3 mph /  10.1 km/h 15.0 mph /  24.1 km/h 72 % 0.00 in /  0 mm
01:52 21.2 °F /  -6 °C 13.3 °F /  -10.4 °C 30.04 in /  1017.2 hPa WNW 4.6 mph /  7.4 km/h 7.0 mph /  11.3 km/h 71 % 0.00 in /  0 mm
01:57 21.1 °F /  -6.1 °C 13.2 °F /  -10.4 °C 30.04 in /  1017.2 hPa NW 3.0 mph /  4.8 km/h 10.4 mph /  16.7 km/h 71 % 0.00 in /  0 mm
01:59 21.1 °F /  -6.1 °C 13.2 °F /  -10.4 °C 30.04 in /  1017.2 hPa WNW 5.7 mph /  9.2 km/h 8.0 mph /  12.9 km/h 71 % 0.00 in /  0 mm
02:04 21.0 °F /  -6.1 °C 13.1 °F /  -10.5 °C 30.04 in /  1017.2 hPa WNW 7.0 mph /  11.3 km/h 16.1 mph /  25.9 km/h 71 % 0.00 in /  0 mm
02:07 21.0 °F /  -6.1 °C 13.1 °F /  -10.5 °C 30.04 in /  1017.2 hPa West 7.6 mph /  12.2 km/h 13.8 mph /  22.2 km/h 71 % 0.00 in /  0 mm
02:08 21.0 °F /  -6.1 °C 13.1 °F /  -10.5 °C 30.04 in /  1017.2 hPa WNW 6.8 mph /  10.9 km/h 11.5 mph /  18.5 km/h 71 % 0.00 in /  0 mm
02:13 21.0 °F /  -6.1 °C 13.7 °F /  -10.2 °C 30.04 in /  1017.2 hPa West 9.3 mph /  15 km/h 14.0 mph /  22.5 km/h 73 % 0.00 in /  0 mm
02:18 20.9 °F /  -6.2 °C 13.3 °F /  -10.4 °C 30.04 in /  1017.2 hPa NW 3.9 mph /  6.3 km/h 12.7 mph /  20.4 km/h 72 % 0.00 in /  0 mm
02:23 20.9 °F /  -6.2 °C 13.6 °F /  -10.2 °C 30.05 in /  1017.5 hPa WNW 9.2 mph /  14.8 km/h 11.5 mph /  18.5 km/h 73 % 0.00 in /  0 mm
02:26 20.9 °F /  -6.2 °C 13.6 °F /  -10.2 °C 30.05 in /  1017.5 hPa NW 6.9 mph /  11.1 km/h 11.5 mph /  18.5 km/h 73 % 0.00 in /  0 mm
02:31 20.8 °F /  -6.2 °C 13.2 °F /  -10.4 °C 30.06 in /  1017.8 hPa NW 8.7 mph /  14 km/h 17.3 mph /  27.8 km/h 72 % 0.00 in /  0 mm
02:35 20.7 °F /  -6.3 °C 12.8 °F /  -10.7 °C 30.05 in /  1017.5 hPa West 7.9 mph /  12.7 km/h 13.8 mph /  22.2 km/h 71 % 0.00 in /  0 mm
02:37 20.7 °F /  -6.3 °C 12.8 °F /  -10.7 °C 30.06 in /  1017.8 hPa WNW 8.2 mph /  13.2 km/h 13.8 mph /  22.2 km/h 71 % 0.00 in /  0 mm
02:42 20.7 °F /  -6.3 °C 12.8 °F /  -10.7 °C 30.06 in /  1017.8 hPa WNW 6.3 mph /  10.1 km/h 9.0 mph /  14.5 km/h 71 % 0.00 in /  0 mm
02:47 20.6 °F /  -6.3 °C 13.0 °F /  -10.6 °C 30.06 in /  1017.8 hPa West 5.6 mph /  9 km/h 11.5 mph /  18.5 km/h 72 % 0.00 in /  0 mm
02:49 20.6 °F /  -6.3 °C 12.7 °F /  -10.7 °C 30.06 in /  1017.8 hPa West 5.3 mph /  8.5 km/h 11.0 mph /  17.7 km/h 71 % 0.00 in /  0 mm
02:54 20.5 °F /  -6.4 °C 12.6 °F /  -10.8 °C 30.07 in /  1018.2 hPa WNW 4.7 mph /  7.6 km/h 10.4 mph /  16.7 km/h 71 % 0.00 in /  0 mm
02:55 20.4 °F /  -6.4 °C 12.5 °F /  -10.8 °C 30.07 in /  1018.2 hPa WNW 4.9 mph /  7.9 km/h 10.4 mph /  16.7 km/h 71 % 0.00 in /  0 mm
02:56 20.4 °F /  -6.4 °C 12.5 °F /  -10.8 °C 30.07 in /  1018.2 hPa NW 3.3 mph /  5.3 km/h 10.0 mph /  16.1 km/h 71 % 0.00 in /  0 mm
03:01 20.3 °F /  -6.5 °C 12.4 °F /  -10.9 °C 30.07 in /  1018.2 hPa WSW 9.0 mph /  14.5 km/h 18.4 mph /  29.6 km/h 71 % 0.00 in /  0 mm
03:06 20.3 °F /  -6.5 °C 12.1 °F /  -11.1 °C 30.07 in /  1018.2 hPa WNW 6.1 mph /  9.8 km/h 11.5 mph /  18.5 km/h 70 % 0.00 in /  0 mm
03:10 20.3 °F /  -6.5 °C 12.4 °F /  -10.9 °C 30.08 in /  1018.5 hPa WNW 8.3 mph /  13.4 km/h 16.0 mph /  25.7 km/h 71 % 0.00 in /  0 mm
03:15 20.3 °F /  -6.5 °C 12.4 °F /  -10.9 °C 30.08 in /  1018.5 hPa West 5.6 mph /  9 km/h 11.5 mph /  18.5 km/h 71 % 0.00 in /  0 mm
03:21 20.2 °F /  -6.6 °C 12.3 °F /  -10.9 °C 30.08 in /  1018.5 hPa WNW 6.0 mph /  9.7 km/h 17.0 mph /  27.4 km/h 71 % 0.00 in /  0 mm
03:26 20.2 °F /  -6.6 °C 12.0 °F /  -11.1 °C 30.08 in /  1018.5 hPa WNW 5.0 mph /  8 km/h 11.0 mph /  17.7 km/h 70 % 0.00 in /  0 mm
03:28 20.2 °F /  -6.6 °C 12.0 °F /  -11.1 °C 30.08 in /  1018.5 hPa NW 8.4 mph /  13.5 km/h 15.0 mph /  24.1 km/h 70 % 0.00 in /  0 mm
03:33 20.2 °F /  -6.6 °C 12.3 °F /  -10.9 °C 30.09 in /  1018.8 hPa WNW 7.1 mph /  11.4 km/h 11.5 mph /  18.5 km/h 71 % 0.00 in /  0 mm
03:35 20.2 °F /  -6.6 °C 12.3 °F /  -10.9 °C 30.09 in /  1018.8 hPa WNW 8.4 mph /  13.5 km/h 15.0 mph /  24.1 km/h 71 % 0.00 in /  0 mm
03:40 20.2 °F /  -6.6 °C 12.0 °F /  -11.1 °C 30.09 in /  1018.8 hPa West 6.2 mph /  10 km/h 13.8 mph /  22.2 km/h 70 % 0.00 in /  0 mm
03:43 20.1 °F /  -6.6 °C 11.9 °F /  -11.2 °C 30.09 in /  1018.8 hPa WSW 4.7 mph /  7.6 km/h 8.0 mph /  12.9 km/h 70 % 0.00 in /  0 mm
03:46 20.1 °F /  -6.6 °C 11.9 °F /  -11.2 °C 30.09 in /  1018.8 hPa WNW 6.4 mph /  10.3 km/h 11.5 mph /  18.5 km/h 70 % 0.00 in /  0 mm
03:51 20.0 °F /  -6.7 °C 11.8 °F /  -11.2 °C 30.09 in /  1018.8 hPa WNW 5.7 mph /  9.2 km/h 10.4 mph /  16.7 km/h 70 % 0.00 in /  0 mm
03:56 20.0 °F /  -6.7 °C 12.1 °F /  -11.1 °C 30.10 in /  1019.2 hPa WNW 4.6 mph /  7.4 km/h 8.1 mph /  13 km/h 71 % 0.00 in /  0 mm
03:58 19.9 °F /  -6.7 °C 12.0 °F /  -11.1 °C 30.10 in /  1019.2 hPa NW 6.6 mph /  10.6 km/h 11.5 mph /  18.5 km/h 71 % 0.00 in /  0 mm
04:03 19.9 °F /  -6.7 °C 12.0 °F /  -11.1 °C 30.10 in /  1019.2 hPa NW 8.9 mph /  14.3 km/h 16.1 mph /  25.9 km/h 71 % 0.00 in /  0 mm
04:06 19.9 °F /  -6.7 °C 12.0 °F /  -11.1 °C 30.10 in /  1019.2 hPa WNW 7.4 mph /  11.9 km/h 17.0 mph /  27.4 km/h 71 % 0.00 in /  0 mm
04:11 19.9 °F /  -6.7 °C 12.0 °F /  -11.1 °C 30.10 in /  1019.2 hPa West 2.7 mph /  4.3 km/h 10.0 mph /  16.1 km/h 71 % 0.00 in /  0 mm
04:12 19.9 °F /  -6.7 °C 12.0 °F /  -11.1 °C 30.11 in /  1019.5 hPa NW 7.6 mph /  12.2 km/h 10.4 mph /  16.7 km/h 71 % 0.00 in /  0 mm
04:15 19.8 °F /  -6.8 °C 11.9 °F /  -11.2 °C 30.10 in /  1019.2 hPa West 7.5 mph /  12.1 km/h 16.1 mph /  25.9 km/h 71 % 0.00 in /  0 mm
04:20 19.8 °F /  -6.8 °C 12.2 °F /  -11 °C 30.11 in /  1019.5 hPa NW 9.4 mph /  15.1 km/h 17.3 mph /  27.8 km/h 72 % 0.00 in /  0 mm
04:25 19.8 °F /  -6.8 °C 12.2 °F /  -11 °C 30.11 in /  1019.5 hPa West 9.2 mph /  14.8 km/h 20.7 mph /  33.3 km/h 72 % 0.00 in /  0 mm
04:30 19.8 °F /  -6.8 °C 11.9 °F /  -11.2 °C 30.11 in /  1019.5 hPa West 9.0 mph /  14.5 km/h 15.0 mph /  24.1 km/h 71 % 0.00 in /  0 mm
04:35 19.7 °F /  -6.8 °C 12.1 °F /  -11.1 °C 30.10 in /  1019.2 hPa NW 6.7 mph /  10.8 km/h 15.0 mph /  24.1 km/h 72 % 0.00 in /  0 mm
04:36 19.7 °F /  -6.8 °C 12.1 °F /  -11.1 °C 30.11 in /  1019.5 hPa WNW 6.5 mph /  10.5 km/h 14.0 mph /  22.5 km/h 72 % 0.00 in /  0 mm
04:38 19.6 °F /  -6.9 °C 12.0 °F /  -11.1 °C 30.11 in /  1019.5 hPa NNW 6.5 mph /  10.5 km/h 11.5 mph /  18.5 km/h 72 % 0.00 in /  0 mm
04:43 19.5 °F /  -6.9 °C 11.9 °F /  -11.2 °C 30.12 in /  1019.9 hPa NNW 6.1 mph /  9.8 km/h 12.7 mph /  20.4 km/h 72 % 0.00 in /  0 mm
04:48 19.5 °F /  -6.9 °C 12.3 °F /  -10.9 °C 30.12 in /  1019.9 hPa North 9.4 mph /  15.1 km/h 15.0 mph /  24.1 km/h 73 % 0.00 in /  0 mm
04:53 19.5 °F /  -6.9 °C 11.9 °F /  -11.2 °C 30.12 in /  1019.9 hPa WNW 4.4 mph /  7.1 km/h 12.7 mph /  20.4 km/h 72 % 0.00 in /  0 mm
04:57 19.5 °F /  -6.9 °C 11.9 °F /  -11.2 °C 30.12 in /  1019.9 hPa WNW 5.6 mph /  9 km/h 13.8 mph /  22.2 km/h 72 % 0.00 in /  0 mm
05:02 19.5 °F /  -6.9 °C 11.9 °F /  -11.2 °C 30.12 in /  1019.9 hPa WNW 9.0 mph /  14.5 km/h 15.0 mph /  24.1 km/h 72 % 0.00 in /  0 mm
05:04 19.5 °F /  -6.9 °C 11.6 °F /  -11.3 °C 30.12 in /  1019.9 hPa WNW 7.2 mph /  11.6 km/h 13.8 mph /  22.2 km/h 71 % 0.00 in /  0 mm
05:09 19.5 °F /  -6.9 °C 11.6 °F /  -11.3 °C 30.13 in /  1020.2 hPa NW 10.7 mph /  17.2 km/h 20.7 mph /  33.3 km/h 71 % 0.00 in /  0 mm
05:15 19.4 °F /  -7 °C 11.5 °F /  -11.4 °C 30.14 in /  1020.5 hPa WSW 9.0 mph /  14.5 km/h 21.9 mph /  35.2 km/h 71 % 0.00 in /  0 mm
05:18 19.4 °F /  -7 °C 11.5 °F /  -11.4 °C 30.13 in /  1020.2 hPa WNW 9.1 mph /  14.6 km/h 15.0 mph /  24.1 km/h 71 % 0.00 in /  0 mm
05:20 19.3 °F /  -7.1 °C 11.1 °F /  -11.6 °C 30.13 in /  1020.2 hPa NW 7.4 mph /  11.9 km/h 18.0 mph /  29 km/h 70 % 0.00 in /  0 mm
05:26 19.2 °F /  -7.1 °C 10.7 °F /  -11.8 °C 30.14 in /  1020.5 hPa WNW 10.0 mph /  16.1 km/h 20.0 mph /  32.2 km/h 69 % 0.00 in /  0 mm
05:31 19.1 °F /  -7.2 °C 10.6 °F /  -11.9 °C 30.14 in /  1020.5 hPa NW 10.0 mph /  16.1 km/h 20.0 mph /  32.2 km/h 69 % 0.00 in /  0 mm
05:32 19.1 °F /  -7.2 °C 10.6 °F /  -11.9 °C 30.14 in /  1020.5 hPa NW 9.4 mph /  15.1 km/h 16.1 mph /  25.9 km/h 69 % 0.00 in /  0 mm
05:37 19.0 °F /  -7.2 °C 10.8 °F /  -11.8 °C 30.14 in /  1020.5 hPa WNW 8.8 mph /  14.2 km/h 12.7 mph /  20.4 km/h 70 % 0.00 in /  0 mm
05:38 19.0 °F /  -7.2 °C 10.8 °F /  -11.8 °C 30.14 in /  1020.5 hPa WSW 6.6 mph /  10.6 km/h 16.1 mph /  25.9 km/h 70 % 0.00 in /  0 mm
05:41 19.0 °F /  -7.2 °C 10.5 °F /  -11.9 °C 30.14 in /  1020.5 hPa NW 7.0 mph /  11.3 km/h 20.0 mph /  32.2 km/h 69 % 0.00 in /  0 mm
05:46 18.9 °F /  -7.3 °C 10.1 °F /  -12.2 °C 30.15 in /  1020.9 hPa NW 13.6 mph /  21.9 km/h 21.9 mph /  35.2 km/h 68 % 0.00 in /  0 mm
05:50 18.8 °F /  -7.3 °C 10.0 °F /  -12.2 °C 30.14 in /  1020.5 hPa NNE 10.5 mph /  16.9 km/h 26.5 mph /  42.6 km/h 68 % 0.00 in /  0 mm
05:55 18.6 °F /  -7.4 °C 9.8 °F /  -12.3 °C 30.15 in /  1020.9 hPa NW 8.2 mph /  13.2 km/h 17.3 mph /  27.8 km/h 68 % 0.00 in /  0 mm
05:57 18.6 °F /  -7.4 °C 9.8 °F /  -12.3 °C 30.15 in /  1020.9 hPa West 7.4 mph /  11.9 km/h 11.5 mph /  18.5 km/h 68 % 0.00 in /  0 mm
06:00 18.5 °F /  -7.5 °C 9.7 °F /  -12.4 °C 30.16 in /  1021.2 hPa NW 8.0 mph /  12.9 km/h 15.0 mph /  24.1 km/h 68 % 0.00 in /  0 mm
06:03 18.4 °F /  -7.6 °C 9.6 °F /  -12.4 °C 30.16 in /  1021.2 hPa NW 10.0 mph /  16.1 km/h 13.0 mph /  20.9 km/h 68 % 0.00 in /  0 mm
06:08 18.2 °F /  -7.7 °C 8.7 °F /  -12.9 °C 30.16 in /  1021.2 hPa WNW 8.0 mph /  12.9 km/h 9.2 mph /  14.8 km/h 66 % 0.00 in /  0 mm
06:12 18.1 °F /  -7.7 °C 8.3 °F /  -13.2 °C 30.17 in /  1021.6 hPa NW 10.4 mph /  16.7 km/h 25.3 mph /  40.7 km/h 65 % 0.00 in /  0 mm
06:14 18.0 °F /  -7.8 °C 8.9 °F /  -12.8 °C 30.17 in /  1021.6 hPa WNW 8.8 mph /  14.2 km/h 13.8 mph /  22.2 km/h 67 % 0.00 in /  0 mm
06:17 18.0 °F /  -7.8 °C 9.2 °F /  -12.7 °C 30.18 in /  1021.9 hPa NW 8.0 mph /  12.9 km/h 11.5 mph /  18.5 km/h 68 % 0.00 in /  0 mm
06:22 17.9 °F /  -7.8 °C 8.8 °F /  -12.9 °C 30.17 in /  1021.6 hPa WNW 10.1 mph /  16.3 km/h 19.0 mph /  30.6 km/h 67 % 0.00 in /  0 mm
06:26 17.9 °F /  -7.8 °C 8.5 °F /  -13.1 °C 30.19 in /  1022.2 hPa WNW 8.0 mph /  12.9 km/h 20.0 mph /  32.2 km/h 66 % 0.00 in /  0 mm
06:31 17.8 °F /  -7.9 °C 8.0 °F /  -13.3 °C 30.18 in /  1021.9 hPa WNW 6.0 mph /  9.7 km/h 18.0 mph /  29 km/h 65 % 0.00 in /  0 mm
06:36 17.7 °F /  -7.9 °C 7.9 °F /  -13.4 °C 30.18 in /  1021.9 hPa WNW 6.0 mph /  9.7 km/h 13.0 mph /  20.9 km/h 65 % 0.00 in /  0 mm
06:41 17.6 °F /  -8 °C 7.8 °F /  -13.4 °C 30.19 in /  1022.2 hPa West 5.4 mph /  8.7 km/h 17.3 mph /  27.8 km/h 65 % 0.00 in /  0 mm
06:46 17.5 °F /  -8.1 °C 7.7 °F /  -13.5 °C 30.18 in /  1021.9 hPa WSW 7.1 mph /  11.4 km/h 16.1 mph /  25.9 km/h 65 % 0.00 in /  0 mm
06:47 17.5 °F /  -8.1 °C 7.7 °F /  -13.5 °C 30.19 in /  1022.2 hPa WNW 6.0 mph /  9.7 km/h 16.1 mph /  25.9 km/h 65 % 0.00 in /  0 mm
06:48 17.5 °F /  -8.1 °C 7.7 °F /  -13.5 °C 30.19 in /  1022.2 hPa NW 8.0 mph /  12.9 km/h 16.1 mph /  25.9 km/h 65 % 0.00 in /  0 mm
06:53 17.4 °F /  -8.1 °C 8.0 °F /  -13.3 °C 30.18 in /  1021.9 hPa NNW 8.0 mph /  12.9 km/h 17.3 mph /  27.8 km/h 66 % 0.00 in /  0 mm
06:58 17.3 °F /  -8.2 °C 7.2 °F /  -13.8 °C 30.19 in /  1022.2 hPa WNW 6.8 mph /  10.9 km/h 13.8 mph /  22.2 km/h 64 % 0.00 in /  0 mm
07:00 17.3 °F /  -8.2 °C 7.2 °F /  -13.8 °C 30.19 in /  1022.2 hPa NW 7.6 mph /  12.2 km/h 12.7 mph /  20.4 km/h 64 % 0.00 in /  0 mm
07:04 17.1 °F /  -8.3 °C 6.3 °F /  -14.3 °C 30.19 in /  1022.2 hPa WSW 4.8 mph /  7.7 km/h 16.1 mph /  25.9 km/h 62 % 0.00 in /  0 mm
07:06 17.0 °F /  -8.3 °C 6.9 °F /  -13.9 °C 30.19 in /  1022.2 hPa NNW 7.3 mph /  11.7 km/h 15.0 mph /  24.1 km/h 64 % 0.00 in /  0 mm
07:11 17.0 °F /  -8.3 °C 7.3 °F /  -13.7 °C 30.19 in /  1022.2 hPa WNW 6.6 mph /  10.6 km/h 16.0 mph /  25.7 km/h 65 % 0.00 in /  0 mm
07:12 17.0 °F /  -8.3 °C 7.3 °F /  -13.7 °C 30.19 in /  1022.2 hPa NNW 8.7 mph /  14 km/h 16.1 mph /  25.9 km/h 65 % 0.00 in /  0 mm
07:17 16.8 °F /  -8.4 °C 6.4 °F /  -14.2 °C 30.19 in /  1022.2 hPa WSW 11.1 mph /  17.9 km/h 19.6 mph /  31.5 km/h 63 % 0.00 in /  0 mm
07:21 16.6 °F /  -8.6 °C 6.2 °F /  -14.3 °C 30.19 in /  1022.2 hPa WNW 6.0 mph /  9.7 km/h 12.7 mph /  20.4 km/h 63 % 0.00 in /  0 mm
07:26 16.6 °F /  -8.6 °C 6.9 °F /  -13.9 °C 30.20 in /  1022.6 hPa NW 7.0 mph /  11.3 km/h 12.0 mph /  19.3 km/h 65 % 0.00 in /  0 mm
07:27 16.5 °F /  -8.6 °C 6.8 °F /  -14 °C 30.20 in /  1022.6 hPa NW 6.4 mph /  10.3 km/h 16.0 mph /  25.7 km/h 65 % 0.00 in /  0 mm
07:31 16.4 °F /  -8.7 °C 6.0 °F /  -14.4 °C 30.20 in /  1022.6 hPa NW 7.7 mph /  12.4 km/h 17.3 mph /  27.8 km/h 63 % 0.00 in /  0 mm
07:36 16.3 °F /  -8.7 °C 5.5 °F /  -14.7 °C 30.21 in /  1022.9 hPa NNW 8.5 mph /  13.7 km/h 18.4 mph /  29.6 km/h 62 % 0.00 in /  0 mm
07:38 16.3 °F /  -8.7 °C 5.9 °F /  -14.5 °C 30.20 in /  1022.6 hPa NNW 7.0 mph /  11.3 km/h 12.7 mph /  20.4 km/h 63 % 0.00 in /  0 mm
07:44 16.2 °F /  -8.8 °C 5.8 °F /  -14.6 °C 30.21 in /  1022.9 hPa WNW 5.7 mph /  9.2 km/h 19.6 mph /  31.5 km/h 63 % 0.00 in /  0 mm
07:45 16.2 °F /  -8.8 °C 5.8 °F /  -14.6 °C 30.20 in /  1022.6 hPa WNW 6.0 mph /  9.7 km/h 13.8 mph /  22.2 km/h 63 % 0.00 in /  0 mm
07:50 16.2 °F /  -8.8 °C 5.1 °F /  -14.9 °C 30.21 in /  1022.9 hPa NNE 5.3 mph /  8.5 km/h 15.0 mph /  24.1 km/h 61 % 0.00 in /  0 mm
07:54 16.1 °F /  -8.8 °C 5.4 °F /  -14.8 °C 30.21 in /  1022.9 hPa NNW 4.9 mph /  7.9 km/h 9.2 mph /  14.8 km/h 62 % 0.00 in /  0 mm
07:59 16.2 °F /  -8.8 °C 5.8 °F /  -14.6 °C 30.21 in /  1022.9 hPa NNW 6.5 mph /  10.5 km/h 16.1 mph /  25.9 km/h 63 % 0.00 in /  0 mm
08:04 16.2 °F /  -8.8 °C 5.5 °F /  -14.7 °C 30.21 in /  1022.9 hPa NNW 8.7 mph /  14 km/h 12.7 mph /  20.4 km/h 62 % 0.00 in /  0 mm
08:06 16.1 °F /  -8.8 °C 5.0 °F /  -15 °C 30.21 in /  1022.9 hPa NNW 7.0 mph /  11.3 km/h 17.0 mph /  27.4 km/h 61 % 0.00 in /  0 mm
08:11 16.1 °F /  -8.8 °C 5.0 °F /  -15 °C 30.20 in /  1022.6 hPa NNW 5.4 mph /  8.7 km/h 11.0 mph /  17.7 km/h 61 % 0.00 in /  0 mm
08:15 16.0 °F /  -8.9 °C 4.9 °F /  -15.1 °C 30.21 in /  1022.9 hPa NW 5.3 mph /  8.5 km/h 19.6 mph /  31.5 km/h 61 % 0.00 in /  0 mm
08:20 16.0 °F /  -8.9 °C 5.3 °F /  -14.8 °C 30.21 in /  1022.9 hPa North 7.1 mph /  11.4 km/h 11.5 mph /  18.5 km/h 62 % 0.00 in /  0 mm
08:22 16.1 °F /  -8.8 °C 5.0 °F /  -15 °C 30.21 in /  1022.9 hPa NW 6.3 mph /  10.1 km/h 11.5 mph /  18.5 km/h 61 % 0.00 in /  0 mm
08:27 16.0 °F /  -8.9 °C 4.9 °F /  -15.1 °C 30.21 in /  1022.9 hPa North 5.4 mph /  8.7 km/h 9.2 mph /  14.8 km/h 61 % 0.00 in /  0 mm
08:32 15.9 °F /  -8.9 °C 4.4 °F /  -15.3 °C 30.20 in /  1022.6 hPa NNE 5.6 mph /  9 km/h 9.2 mph /  14.8 km/h 60 % 0.00 in /  0 mm
08:34 15.8 °F /  -9 °C 4.4 °F /  -15.3 °C 30.20 in /  1022.6 hPa NW 4.9 mph /  7.9 km/h 12.0 mph /  19.3 km/h 60 % 0.00 in /  0 mm
08:39 15.7 °F /  -9.1 °C 4.3 °F /  -15.4 °C 30.21 in /  1022.9 hPa North 5.6 mph /  9 km/h 12.7 mph /  20.4 km/h 60 % 0.00 in /  0 mm
08:44 15.6 °F /  -9.1 °C 4.2 °F /  -15.4 °C 30.20 in /  1022.6 hPa NNW 3.3 mph /  5.3 km/h 10.4 mph /  16.7 km/h 60 % 0.00 in /  0 mm
08:45 15.6 °F /  -9.1 °C 4.2 °F /  -15.4 °C 30.21 in /  1022.9 hPa North 5.1 mph /  8.2 km/h 8.1 mph /  13 km/h 60 % 0.00 in /  0 mm
08:50 15.7 °F /  -9.1 °C 4.6 °F /  -15.2 °C 30.21 in /  1022.9 hPa NW 5.7 mph /  9.2 km/h 12.7 mph /  20.4 km/h 61 % 0.00 in /  0 mm
08:51 15.7 °F /  -9.1 °C 4.6 °F /  -15.2 °C 30.21 in /  1022.9 hPa North 6.0 mph /  9.7 km/h 11.0 mph /  17.7 km/h 61 % 0.00 in /  0 mm
08:55 15.8 °F /  -9 °C 4.7 °F /  -15.2 °C 30.22 in /  1023.2 hPa NW 5.6 mph /  9 km/h 11.5 mph /  18.5 km/h 61 % 0.00 in /  0 mm
08:56 15.8 °F /  -9 °C 4.7 °F /  -15.2 °C 30.22 in /  1023.2 hPa NW 6.4 mph /  10.3 km/h 11.5 mph /  18.5 km/h 61 % 0.00 in /  0 mm
09:01 16.1 °F /  -8.8 °C 5.4 °F /  -14.8 °C 30.22 in /  1023.2 hPa NW 5.9 mph /  9.5 km/h 9.2 mph /  14.8 km/h 62 % 0.00 in /  0 mm
09:02 16.2 °F /  -8.8 °C 5.5 °F /  -14.7 °C 30.23 in /  1023.6 hPa NW 5.3 mph /  8.5 km/h 10.4 mph /  16.7 km/h 62 % 0.00 in /  0 mm
09:07 16.3 °F /  -8.7 °C 5.2 °F /  -14.9 °C 30.23 in /  1023.6 hPa NE 6.6 mph /  10.6 km/h 10.4 mph /  16.7 km/h 61 % 0.00 in /  0 mm
09:08 16.3 °F /  -8.7 °C 5.2 °F /  -14.9 °C 30.23 in /  1023.6 hPa North 6.3 mph /  10.1 km/h 10.4 mph /  16.7 km/h 61 % 0.00 in /  0 mm
09:13 16.3 °F /  -8.7 °C 4.8 °F /  -15.1 °C 30.22 in /  1023.2 hPa NNW 5.1 mph /  8.2 km/h 10.4 mph /  16.7 km/h 60 % 0.00 in /  0 mm
09:18 16.2 °F /  -8.8 °C 4.4 °F /  -15.3 °C 30.22 in /  1023.2 hPa NNW 4.1 mph /  6.6 km/h 13.8 mph /  22.2 km/h 59 % 0.00 in /  0 mm
09:19 16.2 °F /  -8.8 °C 4.4 °F /  -15.3 °C 30.22 in /  1023.2 hPa WSW 4.3 mph /  6.9 km/h 9.2 mph /  14.8 km/h 59 % 0.00 in /  0 mm
09:24 16.1 °F /  -8.8 °C 4.3 °F /  -15.4 °C 30.23 in /  1023.6 hPa NW 3.5 mph /  5.6 km/h 6.9 mph /  11.1 km/h 59 % 0.00 in /  0 mm
09:25 16.1 °F /  -8.8 °C 4.3 °F /  -15.4 °C 30.23 in /  1023.6 hPa NW 5.8 mph /  9.3 km/h 11.5 mph /  18.5 km/h 59 % 0.00 in /  0 mm
09:30 16.0 °F /  -8.9 °C 4.5 °F /  -15.3 °C 30.23 in /  1023.6 hPa North 4.2 mph /  6.8 km/h 4.6 mph /  7.4 km/h 60 % 0.00 in /  0 mm
09:32 16.0 °F /  -8.9 °C 4.5 °F /  -15.3 °C 30.23 in /  1023.6 hPa NNW 5.2 mph /  8.4 km/h 8.0 mph /  12.9 km/h 60 % 0.00 in /  0 mm
09:34 16.0 °F /  -8.9 °C 4.5 °F /  -15.3 °C 30.24 in /  1023.9 hPa NW 3.5 mph /  5.6 km/h 7.0 mph /  11.3 km/h 60 % 0.00 in /  0 mm
09:38 16.1 °F /  -8.8 °C 4.6 °F /  -15.2 °C 30.24 in /  1023.9 hPa North 4.0 mph /  6.4 km/h 10.4 mph /  16.7 km/h 60 % 0.00 in /  0 mm
09:43 16.2 °F /  -8.8 °C 4.4 °F /  -15.3 °C 30.24 in /  1023.9 hPa NW 7.1 mph /  11.4 km/h 13.0 mph /  20.9 km/h 59 % 0.00 in /  0 mm
09:48 16.3 °F /  -8.7 °C 3.7 °F /  -15.7 °C 30.24 in /  1023.9 hPa NNW 8.4 mph /  13.5 km/h 17.3 mph /  27.8 km/h 57 % 0.00 in /  0 mm
09:51 16.4 °F /  -8.7 °C 3.8 °F /  -15.7 °C 30.25 in /  1024.3 hPa West 7.4 mph /  11.9 km/h 12.7 mph /  20.4 km/h 57 % 0.00 in /  0 mm
09:55 16.4 °F /  -8.7 °C 3.8 °F /  -15.7 °C 30.25 in /  1024.3 hPa WNW 5.6 mph /  9 km/h 14.0 mph /  22.5 km/h 57 % 0.00 in /  0 mm
09:58 16.5 °F /  -8.6 °C 3.9 °F /  -15.6 °C 30.26 in /  1024.6 hPa WNW 5.4 mph /  8.7 km/h 11.5 mph /  18.5 km/h 57 % 0.00 in /  0 mm
10:02 16.6 °F /  -8.6 °C 3.6 °F /  -15.8 °C 30.27 in /  1024.9 hPa NNW 7.0 mph /  11.3 km/h 12.7 mph /  20.4 km/h 56 % 0.00 in /  0 mm
10:07 16.7 °F /  -8.5 °C 3.7 °F /  -15.7 °C 30.27 in /  1024.9 hPa NW 3.9 mph /  6.3 km/h 8.1 mph /  13 km/h 56 % 0.00 in /  0 mm
10:09 16.8 °F /  -8.4 °C 4.2 °F /  -15.4 °C 30.28 in /  1025.3 hPa NNW 4.3 mph /  6.9 km/h 8.1 mph /  13 km/h 57 % 0.00 in /  0 mm
10:11 16.8 °F /  -8.4 °C 4.2 °F /  -15.4 °C 30.28 in /  1025.3 hPa WNW 3.0 mph /  4.8 km/h 10.0 mph /  16.1 km/h 57 % 0.00 in /  0 mm
10:16 17.1 °F /  -8.3 °C 4.4 °F /  -15.3 °C 30.27 in /  1024.9 hPa NW 6.0 mph /  9.7 km/h 12.0 mph /  19.3 km/h 57 % 0.00 in /  0 mm
10:20 17.2 °F /  -8.2 °C 4.6 °F /  -15.2 °C 30.27 in /  1024.9 hPa WNW 4.9 mph /  7.9 km/h 11.5 mph /  18.5 km/h 57 % 0.00 in /  0 mm
10:21 17.2 °F /  -8.2 °C 4.6 °F /  -15.2 °C 30.27 in /  1024.9 hPa WNW 6.0 mph /  9.7 km/h 17.0 mph /  27.4 km/h 57 % 0.00 in /  0 mm
10:26 17.3 °F /  -8.2 °C 5.0 °F /  -15 °C 30.26 in /  1024.6 hPa NW 5.3 mph /  8.5 km/h 12.0 mph /  19.3 km/h 58 % 0.00 in /  0 mm
10:28 17.3 °F /  -8.2 °C 5.0 °F /  -15 °C 30.26 in /  1024.6 hPa NW 3.6 mph /  5.8 km/h 6.9 mph /  11.1 km/h 58 % 0.00 in /  0 mm
10:33 17.6 °F /  -8 °C 5.3 °F /  -14.8 °C 30.26 in /  1024.6 hPa WNW 7.5 mph /  12.1 km/h 11.5 mph /  18.5 km/h 58 % 0.00 in /  0 mm
10:35 17.6 °F /  -8 °C 4.5 °F /  -15.3 °C 30.26 in /  1024.6 hPa NNW 6.0 mph /  9.7 km/h 15.0 mph /  24.1 km/h 56 % 0.00 in /  0 mm
10:40 17.5 °F /  -8.1 °C 4.8 °F /  -15.1 °C 30.25 in /  1024.3 hPa NNW 3.9 mph /  6.3 km/h 8.0 mph /  12.9 km/h 57 % 0.00 in /  0 mm
10:45 17.6 °F /  -8 °C 4.9 °F /  -15.1 °C 30.24 in /  1023.9 hPa NNW 5.0 mph /  8 km/h 10.0 mph /  16.1 km/h 57 % 0.00 in /  0 mm
10:46 17.6 °F /  -8 °C 4.9 °F /  -15.1 °C 30.24 in /  1023.9 hPa NNW 5.0 mph /  8 km/h 10.4 mph /  16.7 km/h 57 % 0.00 in /  0 mm
10:48 17.6 °F /  -8 °C 4.2 °F /  -15.4 °C 30.24 in /  1023.9 hPa WNW 6.9 mph /  11.1 km/h 11.5 mph /  18.5 km/h 55 % 0.00 in /  0 mm
10:53 17.6 °F /  -8 °C 3.8 °F /  -15.7 °C 30.25 in /  1024.3 hPa NW 4.3 mph /  6.9 km/h 10.4 mph /  16.7 km/h 54 % 0.00 in /  0 mm
10:55 17.5 °F /  -8.1 °C 4.1 °F /  -15.5 °C 30.25 in /  1024.3 hPa WNW 6.9 mph /  11.1 km/h 11.5 mph /  18.5 km/h 55 % 0.00 in /  0 mm
10:56 17.5 °F /  -8.1 °C 4.1 °F /  -15.5 °C 30.25 in /  1024.3 hPa NW 8.2 mph /  13.2 km/h 13.8 mph /  22.2 km/h 55 % 0.00 in /  0 mm
11:01 17.5 °F /  -8.1 °C 4.1 °F /  -15.5 °C 30.24 in /  1023.9 hPa WNW 7.1 mph /  11.4 km/h 11.5 mph /  18.5 km/h 55 % 0.00 in /  0 mm
11:04 17.5 °F /  -8.1 °C 4.5 °F /  -15.3 °C 30.24 in /  1023.9 hPa NW 3.4 mph /  5.5 km/h 10.4 mph /  16.7 km/h 56 % 0.00 in /  0 mm
11:07 17.6 °F /  -8 °C 4.9 °F /  -15.1 °C 30.23 in /  1023.6 hPa NW 7.1 mph /  11.4 km/h 12.7 mph /  20.4 km/h 57 % 0.00 in /  0 mm
11:11 17.7 °F /  -7.9 °C 3.8 °F /  -15.7 °C 30.23 in /  1023.6 hPa NNW 8.7 mph /  14 km/h 16.1 mph /  25.9 km/h 54 % 0.00 in /  0 mm
11:16 17.7 °F /  -7.9 °C 3.8 °F /  -15.7 °C 30.23 in /  1023.6 hPa WNW 5.4 mph /  8.7 km/h 16.1 mph /  25.9 km/h 54 % 0.00 in /  0 mm
11:20 17.7 °F /  -7.9 °C 4.2 °F /  -15.4 °C 30.24 in /  1023.9 hPa NW 7.9 mph /  12.7 km/h 13.8 mph /  22.2 km/h 55 % 0.00 in /  0 mm
11:25 17.7 °F /  -7.9 °C 4.6 °F /  -15.2 °C 30.24 in /  1023.9 hPa NNW 7.3 mph /  11.7 km/h 11.5 mph /  18.5 km/h 56 % 0.00 in /  0 mm
11:27 17.7 °F /  -7.9 °C 4.6 °F /  -15.2 °C 30.24 in /  1023.9 hPa NW 1.5 mph /  2.4 km/h 11.5 mph /  18.5 km/h 56 % 0.00 in /  0 mm
11:32 17.9 °F /  -7.8 °C 4.8 °F /  -15.1 °C 30.24 in /  1023.9 hPa NW 3.6 mph /  5.8 km/h 10.4 mph /  16.7 km/h 56 % 0.00 in /  0 mm
11:33 18.0 °F /  -7.8 °C 4.5 °F /  -15.3 °C 30.23 in /  1023.6 hPa NW 5.2 mph /  8.4 km/h 8.1 mph /  13 km/h 55 % 0.00 in /  0 mm
11:38 18.1 °F /  -7.7 °C 5.0 °F /  -15 °C 30.22 in /  1023.2 hPa NNW 3.5 mph /  5.6 km/h 5.0 mph /  8 km/h 56 % 0.00 in /  0 mm
11:43 18.2 °F /  -7.7 °C 4.7 °F /  -15.2 °C 30.22 in /  1023.2 hPa NNW 4.2 mph /  6.8 km/h 6.9 mph /  11.1 km/h 55 % 0.00 in /  0 mm
11:48 18.2 °F /  -7.7 °C 4.3 °F /  -15.4 °C 30.21 in /  1022.9 hPa NNW 4.6 mph /  7.4 km/h 11.5 mph /  18.5 km/h 54 % 0.00 in /  0 mm
11:49 18.2 °F /  -7.7 °C 4.7 °F /  -15.2 °C 30.21 in /  1022.9 hPa WNW 3.7 mph /  6 km/h 9.2 mph /  14.8 km/h 55 % 0.00 in /  0 mm
11:50 18.2 °F /  -7.7 °C 4.7 °F /  -15.2 °C 30.22 in /  1023.2 hPa WNW 7.0 mph /  11.3 km/h 12.0 mph /  19.3 km/h 55 % 0.00 in /  0 mm
11:54 18.1 °F /  -7.7 °C 4.6 °F /  -15.2 °C 30.22 in /  1023.2 hPa North 4.9 mph /  7.9 km/h 9.2 mph /  14.8 km/h 55 % 0.00 in /  0 mm
11:59 18.1 °F /  -7.7 °C 4.2 °F /  -15.4 °C 30.20 in /  1022.6 hPa NNE 6.0 mph /  9.7 km/h 9.2 mph /  14.8 km/h 54 % 0.00 in /  0 mm
12:04 17.9 °F /  -7.8 °C 3.6 °F /  -15.8 °C 30.21 in /  1022.9 hPa NNW 2.4 mph /  3.9 km/h 9.2 mph /  14.8 km/h 53 % 0.00 in /  0 mm
12:07 18.0 °F /  -7.8 °C 4.5 °F /  -15.3 °C 30.21 in /  1022.9 hPa West 5.3 mph /  8.5 km/h 10.4 mph /  16.7 km/h 55 % 0.00 in /  0 mm
12:09 18.0 °F /  -7.8 °C 4.1 °F /  -15.5 °C 30.21 in /  1022.9 hPa NW 3.4 mph /  5.5 km/h 10.4 mph /  16.7 km/h 54 % 0.00 in /  0 mm
12:14 18.0 °F /  -7.8 °C 4.1 °F /  -15.5 °C 30.20 in /  1022.6 hPa NNW 3.8 mph /  6.1 km/h 6.9 mph /  11.1 km/h 54 % 0.00 in /  0 mm
12:20 18.0 °F /  -7.8 °C 3.7 °F /  -15.7 °C 30.20 in /  1022.6 hPa NNW 5.1 mph /  8.2 km/h 9.2 mph /  14.8 km/h 53 % 0.00 in /  0 mm
12:25 18.1 °F /  -7.7 °C 4.6 °F /  -15.2 °C 30.20 in /  1022.6 hPa North 3.8 mph /  6.1 km/h 9.2 mph /  14.8 km/h 55 % 0.00 in /  0 mm
12:26 18.1 °F /  -7.7 °C 4.6 °F /  -15.2 °C 30.20 in /  1022.6 hPa North 2.7 mph /  4.3 km/h 5.8 mph /  9.3 km/h 55 % 0.00 in /  0 mm
12:31 18.2 °F /  -7.7 °C 4.3 °F /  -15.4 °C 30.20 in /  1022.6 hPa West 3.7 mph /  6 km/h 11.5 mph /  18.5 km/h 54 % 0.00 in /  0 mm
12:32 18.3 °F /  -7.6 °C 4.4 °F /  -15.3 °C 30.20 in /  1022.6 hPa WNW 4.3 mph /  6.9 km/h 5.8 mph /  9.3 km/h 54 % 0.00 in /  0 mm
12:35 18.4 °F /  -7.6 °C 4.5 °F /  -15.3 °C 30.20 in /  1022.6 hPa WNW 1.0 mph /  1.6 km/h 5.8 mph /  9.3 km/h 54 % 0.00 in /  0 mm
12:40 18.5 °F /  -7.5 °C 4.6 °F /  -15.2 °C 30.20 in /  1022.6 hPa WNW 3.9 mph /  6.3 km/h 11.5 mph /  18.5 km/h 54 % 0.00 in /  0 mm
12:41 18.6 °F /  -7.4 °C 5.1 °F /  -14.9 °C 30.21 in /  1022.9 hPa SW 6.6 mph /  10.6 km/h 9.2 mph /  14.8 km/h 55 % 0.00 in /  0 mm
12:46 18.7 °F /  -7.4 °C 4.8 °F /  -15.1 °C 30.21 in /  1022.9 hPa NNW 5.8 mph /  9.3 km/h 7.0 mph /  11.3 km/h 54 % 0.00 in /  0 mm
12:47 18.7 °F /  -7.4 °C 4.4 °F /  -15.3 °C 30.21 in /  1022.9 hPa WNW 6.4 mph /  10.3 km/h 11.5 mph /  18.5 km/h 53 % 0.00 in /  0 mm
12:51 18.6 °F /  -7.4 °C 4.3 °F /  -15.4 °C 30.21 in /  1022.9 hPa WNW 4.3 mph /  6.9 km/h 8.1 mph /  13 km/h 53 % 0.00 in /  0 mm
12:56 18.7 °F /  -7.4 °C 4.0 °F /  -15.6 °C 30.21 in /  1022.9 hPa WNW 2.1 mph /  3.4 km/h 4.6 mph /  7.4 km/h 52 % 0.00 in /  0 mm
12:58 18.6 °F /  -7.4 °C 3.9 °F /  -15.6 °C 30.20 in /  1022.6 hPa NW 5.0 mph /  8 km/h 6.9 mph /  11.1 km/h 52 % 0.00 in /  0 mm
13:03 18.6 °F /  -7.4 °C 4.3 °F /  -15.4 °C 30.20 in /  1022.6 hPa WNW 4.4 mph /  7.1 km/h 6.9 mph /  11.1 km/h 53 % 0.00 in /  0 mm
13:07 18.6 °F /  -7.4 °C 4.3 °F /  -15.4 °C 30.20 in /  1022.6 hPa NNW 7.4 mph /  11.9 km/h 9.2 mph /  14.8 km/h 53 % 0.00 in /  0 mm
13:12 18.2 °F /  -7.7 °C 3.1 °F /  -16.1 °C 30.19 in /  1022.2 hPa NNW 5.0 mph /  8 km/h 8.1 mph /  13 km/h 51 % 0.00 in /  0 mm
13:17 18.0 °F /  -7.8 °C 3.7 °F /  -15.7 °C 30.19 in /  1022.2 hPa NW 4.0 mph /  6.4 km/h 10.4 mph /  16.7 km/h 53 % 0.00 in /  0 mm
13:18 18.0 °F /  -7.8 °C 3.7 °F /  -15.7 °C 30.19 in /  1022.2 hPa WNW 6.6 mph /  10.6 km/h 11.5 mph /  18.5 km/h 53 % 0.00 in /  0 mm
13:20 18.0 °F /  -7.8 °C 3.7 °F /  -15.7 °C 30.19 in /  1022.2 hPa NW 5.3 mph /  8.5 km/h 10.4 mph /  16.7 km/h 53 % 0.00 in /  0 mm
13:25 17.9 °F /  -7.8 °C 3.6 °F /  -15.8 °C 30.20 in /  1022.6 hPa NW 3.1 mph /  5 km/h 6.9 mph /  11.1 km/h 53 % 0.00 in /  0 mm
13:28 17.9 °F /  -7.8 °C 4.0 °F /  -15.6 °C 30.20 in /  1022.6 hPa WNW 4.9 mph /  7.9 km/h 11.0 mph /  17.7 km/h 54 % 0.00 in /  0 mm
13:31 17.9 °F /  -7.8 °C 3.6 °F /  -15.8 °C 30.20 in /  1022.6 hPa WNW 5.6 mph /  9 km/h 9.2 mph /  14.8 km/h 53 % 0.00 in /  0 mm
13:36 17.8 °F /  -7.9 °C 3.5 °F /  -15.8 °C 30.21 in /  1022.9 hPa NW 4.4 mph /  7.1 km/h 8.1 mph /  13 km/h 53 % 0.00 in /  0 mm
13:37 17.8 °F /  -7.9 °C 4.3 °F /  -15.4 °C 30.21 in /  1022.9 hPa WNW 4.7 mph /  7.6 km/h 9.0 mph /  14.5 km/h 55 % 0.00 in /  0 mm
13:41 17.8 °F /  -7.9 °C 3.5 °F /  -15.8 °C 30.21 in /  1022.9 hPa NW 5.6 mph /  9 km/h 11.5 mph /  18.5 km/h 53 % 0.00 in /  0 mm
13:46 17.8 °F /  -7.9 °C 3.5 °F /  -15.8 °C 30.22 in /  1023.2 hPa WNW 4.6 mph /  7.4 km/h 12.0 mph /  19.3 km/h 53 % 0.00 in /  0 mm
13:51 17.8 °F /  -7.9 °C 3.9 °F /  -15.6 °C 30.22 in /  1023.2 hPa NW 5.6 mph /  9 km/h 11.5 mph /  18.5 km/h 54 % 0.00 in /  0 mm
13:54 17.7 °F /  -7.9 °C 3.8 °F /  -15.7 °C 30.23 in /  1023.6 hPa NW 7.1 mph /  11.4 km/h 11.5 mph /  18.5 km/h 54 % 0.00 in /  0 mm
13:59 17.6 °F /  -8 °C 3.8 °F /  -15.7 °C 30.22 in /  1023.2 hPa WNW 6.5 mph /  10.5 km/h 6.9 mph /  11.1 km/h 54 % 0.00 in /  0 mm
14:03 17.6 °F /  -8 °C 2.9 °F /  -16.2 °C 30.21 in /  1022.9 hPa NW 6.9 mph /  11.1 km/h 9.2 mph /  14.8 km/h 52 % 0.00 in /  0 mm
14:08 17.5 °F /  -8.1 °C 3.7 °F /  -15.7 °C 30.21 in /  1022.9 hPa NW 4.9 mph /  7.9 km/h 7.0 mph /  11.3 km/h 54 % 0.00 in /  0 mm
14:13 17.5 °F /  -8.1 °C 3.7 °F /  -15.7 °C 30.22 in /  1023.2 hPa West 6.6 mph /  10.6 km/h 16.1 mph /  25.9 km/h 54 % 0.00 in /  0 mm
14:14 17.5 °F /  -8.1 °C 3.7 °F /  -15.7 °C 30.22 in /  1023.2 hPa NNW 5.2 mph /  8.4 km/h 16.1 mph /  25.9 km/h 54 % 0.00 in /  0 mm
14:19 17.5 °F /  -8.1 °C 4.1 °F /  -15.5 °C 30.24 in /  1023.9 hPa NNW 5.6 mph /  9 km/h 10.4 mph /  16.7 km/h 55 % 0.00 in /  0 mm
14:21 17.5 °F /  -8.1 °C 4.1 °F /  -15.5 °C 30.24 in /  1023.9 hPa WNW 2.1 mph /  3.4 km/h 4.0 mph /  6.4 km/h 55 % 0.00 in /  0 mm
14:23 17.5 °F /  -8.1 °C 4.1 °F /  -15.5 °C 30.24 in /  1023.9 hPa WSW 6.4 mph /  10.3 km/h 13.8 mph /  22.2 km/h 55 % 0.00 in /  0 mm
14:28 17.4 °F /  -8.1 °C 3.6 °F /  -15.8 °C 30.24 in /  1023.9 hPa WNW 5.8 mph /  9.3 km/h 10.4 mph /  16.7 km/h 54 % 0.00 in /  0 mm
14:31 17.4 °F /  -8.1 °C 3.6 °F /  -15.8 °C 30.24 in /  1023.9 hPa NNW 6.0 mph /  9.7 km/h 10.0 mph /  16.1 km/h 54 % 0.00 in /  0 mm
14:36 17.3 °F /  -8.2 °C 3.5 °F /  -15.8 °C 30.25 in /  1024.3 hPa NW 8.6 mph /  13.8 km/h 13.8 mph /  22.2 km/h 54 % 0.00 in /  0 mm
14:37 17.3 °F /  -8.2 °C 3.5 °F /  -15.8 °C 30.25 in /  1024.3 hPa WNW 2.8 mph /  4.5 km/h 7.0 mph /  11.3 km/h 54 % 0.00 in /  0 mm
14:42 17.1 °F /  -8.3 °C 3.3 °F /  -15.9 °C 30.25 in /  1024.3 hPa NW 4.1 mph /  6.6 km/h 9.2 mph /  14.8 km/h 54 % 0.00 in /  0 mm
14:43 17.1 °F /  -8.3 °C 3.3 °F /  -15.9 °C 30.25 in /  1024.3 hPa West 5.1 mph /  8.2 km/h 12.7 mph /  20.4 km/h 54 % 0.00 in /  0 mm
14:48 16.9 °F /  -8.4 °C 3.5 °F /  -15.8 °C 30.24 in /  1023.9 hPa WNW 5.3 mph /  8.5 km/h 9.2 mph /  14.8 km/h 55 % 0.00 in /  0 mm
14:53 16.7 °F /  -8.5 °C 3.3 °F /  -15.9 °C 30.24 in /  1023.9 hPa NW 7.0 mph /  11.3 km/h 11.5 mph /  18.5 km/h 55 % 0.00 in /  0 mm
14:54 16.7 °F /  -8.5 °C 3.3 °F /  -15.9 °C 30.24 in /  1023.9 hPa WNW 5.8 mph /  9.3 km/h 11.5 mph /  18.5 km/h 55 % 0.00 in /  0 mm
14:59 16.5 °F /  -8.6 °C 3.1 °F /  -16.1 °C 30.24 in /  1023.9 hPa WNW 5.7 mph /  9.2 km/h 13.8 mph /  22.2 km/h 55 % 0.00 in /  0 mm
15:02 16.4 °F /  -8.7 °C 3.0 °F /  -16.1 °C 30.24 in /  1023.9 hPa West 6.4 mph /  10.3 km/h 13.8 mph /  22.2 km/h 55 % 0.00 in /  0 mm
15:07 16.2 °F /  -8.8 °C 3.2 °F /  -16 °C 30.25 in /  1024.3 hPa NW 3.0 mph /  4.8 km/h 9.2 mph /  14.8 km/h 56 % 0.00 in /  0 mm
15:12 16.1 °F /  -8.8 °C 3.5 °F /  -15.8 °C 30.24 in /  1023.9 hPa SW 6.3 mph /  10.1 km/h 11.5 mph /  18.5 km/h 57 % 0.00 in /  0 mm
15:17 16.0 °F /  -8.9 °C 3.4 °F /  -15.9 °C 30.24 in /  1023.9 hPa NNW 6.9 mph /  11.1 km/h 12.7 mph /  20.4 km/h 57 % 0.00 in /  0 mm
15:20 15.9 °F /  -8.9 °C 3.0 °F /  -16.1 °C 30.25 in /  1024.3 hPa NW 4.3 mph /  6.9 km/h 13.8 mph /  22.2 km/h 56 % 0.00 in /  0 mm
15:23 15.8 °F /  -9 °C 2.9 °F /  -16.2 °C 30.25 in /  1024.3 hPa NNW 8.6 mph /  13.8 km/h 17.3 mph /  27.8 km/h 56 % 0.00 in /  0 mm
15:28 15.7 °F /  -9.1 °C 2.8 °F /  -16.2 °C 30.25 in /  1024.3 hPa NW 5.4 mph /  8.7 km/h 11.5 mph /  18.5 km/h 56 % 0.00 in /  0 mm
15:30 15.7 °F /  -9.1 °C 3.1 °F /  -16.1 °C 30.25 in /  1024.3 hPa West 7.3 mph /  11.7 km/h 14.0 mph /  22.5 km/h 57 % 0.00 in /  0 mm
15:35 15.5 °F /  -9.2 °C 2.2 °F /  -16.6 °C 30.26 in /  1024.6 hPa WSW 8.7 mph /  14 km/h 12.7 mph /  20.4 km/h 55 % 0.00 in /  0 mm
15:39 15.4 °F /  -9.2 °C 2.1 °F /  -16.6 °C 30.26 in /  1024.6 hPa NNW 7.0 mph /  11.3 km/h 11.5 mph /  18.5 km/h 55 % 0.00 in /  0 mm
15:44 15.3 °F /  -9.3 °C 2.0 °F /  -16.7 °C 30.26 in /  1024.6 hPa WNW 7.6 mph /  12.2 km/h 12.7 mph /  20.4 km/h 55 % 0.00 in /  0 mm
15:45 15.3 °F /  -9.3 °C 2.0 °F /  -16.7 °C 30.26 in /  1024.6 hPa NW 7.4 mph /  11.9 km/h 12.7 mph /  20.4 km/h 55 % 0.00 in /  0 mm
15:50 15.1 °F /  -9.4 °C 2.2 °F /  -16.6 °C 30.26 in /  1024.6 hPa WNW 3.7 mph /  6 km/h 6.9 mph /  11.1 km/h 56 % 0.00 in /  0 mm
15:55 15.0 °F /  -9.4 °C 1.7 °F /  -16.8 °C 30.26 in /  1024.6 hPa NW 8.4 mph /  13.5 km/h 10.0 mph /  16.1 km/h 55 % 0.00 in /  0 mm
15:59 14.9 °F /  -9.5 °C 1.6 °F /  -16.9 °C 30.25 in /  1024.3 hPa North 2.5 mph /  4 km/h 11.5 mph /  18.5 km/h 55 % 0.00 in /  0 mm
16:04 14.8 °F /  -9.6 °C 1.9 °F /  -16.7 °C 30.26 in /  1024.6 hPa WNW 5.9 mph /  9.5 km/h 10.0 mph /  16.1 km/h 56 % 0.00 in /  0 mm
16:08 14.6 °F /  -9.7 °C 0.9 °F /  -17.3 °C 30.26 in /  1024.6 hPa West 6.1 mph /  9.8 km/h 12.7 mph /  20.4 km/h 54 % 0.00 in /  0 mm
16:13 14.5 °F /  -9.7 °C 1.2 °F /  -17.1 °C 30.26 in /  1024.6 hPa WNW 4.8 mph /  7.7 km/h 12.7 mph /  20.4 km/h 55 % 0.00 in /  0 mm
16:17 14.5 °F /  -9.7 °C 2.0 °F /  -16.7 °C 30.26 in /  1024.6 hPa NW 5.3 mph /  8.5 km/h 11.5 mph /  18.5 km/h 57 % 0.00 in /  0 mm
16:22 14.5 °F /  -9.7 °C 1.6 °F /  -16.9 °C 30.26 in /  1024.6 hPa West 6.3 mph /  10.1 km/h 12.7 mph /  20.4 km/h 56 % 0.00 in /  0 mm
16:27 14.4 °F /  -9.8 °C 1.9 °F /  -16.7 °C 30.26 in /  1024.6 hPa WNW 4.4 mph /  7.1 km/h 11.5 mph /  18.5 km/h 57 % 0.00 in /  0 mm
16:29 14.3 °F /  -9.8 °C 2.2 °F /  -16.6 °C 30.26 in /  1024.6 hPa NW 5.5 mph /  8.9 km/h 8.1 mph /  13 km/h 58 % 0.00 in /  0 mm
16:30 14.3 °F /  -9.8 °C 2.2 °F /  -16.6 °C 30.26 in /  1024.6 hPa NW 8.1 mph /  13 km/h 10.4 mph /  16.7 km/h 58 % 0.00 in /  0 mm
16:35 14.3 °F /  -9.8 °C 1.8 °F /  -16.8 °C 30.26 in /  1024.6 hPa NNW 4.0 mph /  6.4 km/h 8.1 mph /  13 km/h 57 % 0.00 in /  0 mm
16:40 14.1 °F /  -9.9 °C 1.6 °F /  -16.9 °C 30.26 in /  1024.6 hPa North 3.8 mph /  6.1 km/h 15.0 mph /  24.1 km/h 57 % 0.00 in /  0 mm
16:45 14.1 °F /  -9.9 °C 2.0 °F /  -16.7 °C 30.26 in /  1024.6 hPa WNW 5.2 mph /  8.4 km/h 11.5 mph /  18.5 km/h 58 % 0.00 in /  0 mm
16:46 14.1 °F /  -9.9 °C 2.0 °F /  -16.7 °C 30.26 in /  1024.6 hPa NW 2.8 mph /  4.5 km/h 6.9 mph /  11.1 km/h 58 % 0.00 in /  0 mm
16:49 14.0 °F /  -10 °C 1.9 °F /  -16.7 °C 30.26 in /  1024.6 hPa WNW 3.4 mph /  5.5 km/h 10.4 mph /  16.7 km/h 58 % 0.00 in /  0 mm
16:53 14.0 °F /  -10 °C 1.9 °F /  -16.7 °C 30.26 in /  1024.6 hPa West 6.2 mph /  10 km/h 11.5 mph /  18.5 km/h 58 % 0.00 in /  0 mm
16:56 13.9 °F /  -10.1 °C 1.5 °F /  -16.9 °C 30.26 in /  1024.6 hPa NW 6.9 mph /  11.1 km/h 11.5 mph /  18.5 km/h 57 % 0.00 in /  0 mm
17:01 13.8 °F /  -10.1 °C 1.7 °F /  -16.8 °C 30.26 in /  1024.6 hPa NNE 3.0 mph /  4.8 km/h 6.9 mph /  11.1 km/h 58 % 0.00 in /  0 mm
17:03 13.8 °F /  -10.1 °C 1.7 °F /  -16.8 °C 30.26 in /  1024.6 hPa WNW 3.3 mph /  5.3 km/h 10.4 mph /  16.7 km/h 58 % 0.00 in /  0 mm
17:08 13.7 °F /  -10.2 °C 2.0 °F /  -16.7 °C 30.26 in /  1024.6 hPa NNW 3.5 mph /  5.6 km/h 10.4 mph /  16.7 km/h 59 % 0.00 in /  0 mm
17:10 13.7 °F /  -10.2 °C 2.0 °F /  -16.7 °C 30.27 in /  1024.9 hPa NNW 6.7 mph /  10.8 km/h 13.0 mph /  20.9 km/h 59 % 0.00 in /  0 mm
17:15 13.6 °F /  -10.2 °C 1.5 °F /  -16.9 °C 30.26 in /  1024.6 hPa West 4.7 mph /  7.6 km/h 11.5 mph /  18.5 km/h 58 % 0.00 in /  0 mm
17:17 13.6 °F /  -10.2 °C 1.5 °F /  -16.9 °C 30.27 in /  1024.9 hPa NNW 4.1 mph /  6.6 km/h 9.2 mph /  14.8 km/h 58 % 0.00 in /  0 mm
17:22 13.5 °F /  -10.3 °C 1.4 °F /  -17 °C 30.27 in /  1024.9 hPa NNW 6.1 mph /  9.8 km/h 11.5 mph /  18.5 km/h 58 % 0.00 in /  0 mm
17:27 13.5 °F /  -10.3 °C 1.4 °F /  -17 °C 30.27 in /  1024.9 hPa WNW 3.7 mph /  6 km/h 8.1 mph /  13 km/h 58 % 0.00 in /  0 mm
17:30 13.5 °F /  -10.3 °C 1.8 °F /  -16.8 °C 30.27 in /  1024.9 hPa NW 5.6 mph /  9 km/h 10.0 mph /  16.1 km/h 59 % 0.00 in /  0 mm
17:35 13.5 °F /  -10.3 °C 2.2 °F /  -16.6 °C 30.28 in /  1025.3 hPa NW 3.7 mph /  6 km/h 11.5 mph /  18.5 km/h 60 % 0.00 in /  0 mm
17:40 13.5 °F /  -10.3 °C 2.2 °F /  -16.6 °C 30.27 in /  1024.9 hPa NNW 6.0 mph /  9.7 km/h 12.7 mph /  20.4 km/h 60 % 0.00 in /  0 mm
17:41 13.5 °F /  -10.3 °C 2.2 °F /  -16.6 °C 30.27 in /  1024.9 hPa NNW 5.9 mph /  9.5 km/h 12.7 mph /  20.4 km/h 60 % 0.00 in /  0 mm
17:46 13.5 °F /  -10.3 °C 1.8 °F /  -16.8 °C 30.28 in /  1025.3 hPa NW 2.7 mph /  4.3 km/h 6.9 mph /  11.1 km/h 59 % 0.00 in /  0 mm
17:51 13.4 °F /  -10.3 °C 1.4 °F /  -17 °C 30.28 in /  1025.3 hPa NW 5.4 mph /  8.7 km/h 10.4 mph /  16.7 km/h 58 % 0.00 in /  0 mm
17:53 13.4 °F /  -10.3 °C 1.4 °F /  -17 °C 30.27 in /  1024.9 hPa NW 11.3 mph /  18.2 km/h 13.0 mph /  20.9 km/h 58 % 0.00 in /  0 mm
17:58 13.3 °F /  -10.4 °C 1.3 °F /  -17.1 °C 30.28 in /  1025.3 hPa WNW 5.3 mph /  8.5 km/h 11.5 mph /  18.5 km/h 58 % 0.00 in /  0 mm
18:03 13.2 °F /  -10.4 °C 1.5 °F /  -16.9 °C 30.28 in /  1025.3 hPa WNW 6.9 mph /  11.1 km/h 8.1 mph /  13 km/h 59 % 0.00 in /  0 mm
18:08 13.3 °F /  -10.4 °C 2.3 °F /  -16.5 °C 30.28 in /  1025.3 hPa NNW 5.3 mph /  8.5 km/h 8.1 mph /  13 km/h 61 % 0.00 in /  0 mm
18:14 13.2 °F /  -10.4 °C 1.9 °F /  -16.7 °C 30.28 in /  1025.3 hPa NNW 5.6 mph /  9 km/h 11.5 mph /  18.5 km/h 60 % 0.00 in /  0 mm
18:15 13.2 °F /  -10.4 °C 1.9 °F /  -16.7 °C 30.28 in /  1025.3 hPa North 4.5 mph /  7.2 km/h 8.0 mph /  12.9 km/h 60 % 0.00 in /  0 mm
18:20 13.2 °F /  -10.4 °C 1.9 °F /  -16.7 °C 30.28 in /  1025.3 hPa West 6.5 mph /  10.5 km/h 12.7 mph /  20.4 km/h 60 % 0.00 in /  0 mm
18:25 13.1 °F /  -10.5 °C 1.8 °F /  -16.8 °C 30.28 in /  1025.3 hPa NW 6.0 mph /  9.7 km/h 13.0 mph /  20.9 km/h 60 % 0.00 in /  0 mm
18:27 13.1 °F /  -10.5 °C 1.8 °F /  -16.8 °C 30.28 in /  1025.3 hPa North 7.0 mph /  11.3 km/h 11.0 mph /  17.7 km/h 60 % 0.00 in /  0 mm
18:32 13.2 °F /  -10.4 °C 2.3 °F /  -16.5 °C 30.28 in /  1025.3 hPa NW 8.0 mph /  12.9 km/h 13.8 mph /  22.2 km/h 61 % 0.00 in /  0 mm
18:33 13.1 °F /  -10.5 °C 1.8 °F /  -16.8 °C 30.28 in /  1025.3 hPa North 5.9 mph /  9.5 km/h 11.5 mph /  18.5 km/h 60 % 0.00 in /  0 mm
18:38 13.1 °F /  -10.5 °C 1.8 °F /  -16.8 °C 30.28 in /  1025.3 hPa WNW 5.5 mph /  8.9 km/h 11.5 mph /  18.5 km/h 60 % 0.00 in /  0 mm
18:40 13.1 °F /  -10.5 °C 2.2 °F /  -16.6 °C 30.28 in /  1025.3 hPa NNW 5.0 mph /  8 km/h 12.0 mph /  19.3 km/h 61 % 0.00 in /  0 mm
18:41 13.1 °F /  -10.5 °C 2.2 °F /  -16.6 °C 30.28 in /  1025.3 hPa NNW 4.4 mph /  7.1 km/h 6.9 mph /  11.1 km/h 61 % 0.00 in /  0 mm
18:46 13.1 °F /  -10.5 °C 2.2 °F /  -16.6 °C 30.28 in /  1025.3 hPa NNW 3.0 mph /  4.8 km/h 10.0 mph /  16.1 km/h 61 % 0.00 in /  0 mm
18:51 13.1 °F /  -10.5 °C 1.8 °F /  -16.8 °C 30.29 in /  1025.6 hPa WNW 7.6 mph /  12.2 km/h 13.0 mph /  20.9 km/h 60 % 0.00 in /  0 mm
18:52 13.1 °F /  -10.5 °C 1.8 °F /  -16.8 °C 30.29 in /  1025.6 hPa NNW 7.1 mph /  11.4 km/h 11.5 mph /  18.5 km/h 60 % 0.00 in /  0 mm
18:57 13.1 °F /  -10.5 °C 1.8 °F /  -16.8 °C 30.29 in /  1025.6 hPa NNW 5.4 mph /  8.7 km/h 11.5 mph /  18.5 km/h 60 % 0.00 in /  0 mm
18:59 13.0 °F /  -10.6 °C 1.3 °F /  -17.1 °C 30.29 in /  1025.6 hPa NW 5.5 mph /  8.9 km/h 9.2 mph /  14.8 km/h 59 % 0.00 in /  0 mm
19:04 13.0 °F /  -10.6 °C 1.7 °F /  -16.8 °C 30.29 in /  1025.6 hPa NNW 6.4 mph /  10.3 km/h 17.3 mph /  27.8 km/h 60 % 0.00 in /  0 mm
19:09 13.0 °F /  -10.6 °C 1.3 °F /  -17.1 °C 30.29 in /  1025.6 hPa WNW 5.0 mph /  8 km/h 10.4 mph /  16.7 km/h 59 % 0.00 in /  0 mm
19:15 13.0 °F /  -10.6 °C 1.7 °F /  -16.8 °C 30.29 in /  1025.6 hPa NW 3.2 mph /  5.1 km/h 11.5 mph /  18.5 km/h 60 % 0.00 in /  0 mm
19:16 12.9 °F /  -10.6 °C 2.0 °F /  -16.7 °C 30.29 in /  1025.6 hPa NNW 7.1 mph /  11.4 km/h 9.2 mph /  14.8 km/h 61 % 0.00 in /  0 mm
19:22 13.0 °F /  -10.6 °C 2.1 °F /  -16.6 °C 30.29 in /  1025.6 hPa NW 4.9 mph /  7.9 km/h 11.5 mph /  18.5 km/h 61 % 0.00 in /  0 mm
19:25 13.0 °F /  -10.6 °C 2.1 °F /  -16.6 °C 30.29 in /  1025.6 hPa NW 3.0 mph /  4.8 km/h 4.6 mph /  7.4 km/h 61 % 0.00 in /  0 mm
19:30 12.9 °F /  -10.6 °C 2.0 °F /  -16.7 °C 30.29 in /  1025.6 hPa NW 5.8 mph /  9.3 km/h 10.4 mph /  16.7 km/h 61 % 0.00 in /  0 mm
19:33 13.0 °F /  -10.6 °C 2.4 °F /  -16.4 °C 30.29 in /  1025.6 hPa NNW 5.1 mph /  8.2 km/h 9.2 mph /  14.8 km/h 62 % 0.00 in /  0 mm
19:34 13.0 °F /  -10.6 °C 2.4 °F /  -16.4 °C 30.29 in /  1025.6 hPa NW 2.3 mph /  3.7 km/h 9.2 mph /  14.8 km/h 62 % 0.00 in /  0 mm
19:39 13.0 °F /  -10.6 °C 2.1 °F /  -16.6 °C 30.29 in /  1025.6 hPa West 5.6 mph /  9 km/h 9.2 mph /  14.8 km/h 61 % 0.00 in /  0 mm
19:45 12.9 °F /  -10.6 °C 2.3 °F /  -16.5 °C 30.29 in /  1025.6 hPa NNW 5.5 mph /  8.9 km/h 11.5 mph /  18.5 km/h 62 % 0.00 in /  0 mm
19:47 13.0 °F /  -10.6 °C 2.8 °F /  -16.2 °C 30.29 in /  1025.6 hPa NW 5.9 mph /  9.5 km/h 10.4 mph /  16.7 km/h 63 % 0.00 in /  0 mm
19:52 12.9 °F /  -10.6 °C 2.7 °F /  -16.3 °C 30.29 in /  1025.6 hPa NW 6.8 mph /  10.9 km/h 13.0 mph /  20.9 km/h 63 % 0.00 in /  0 mm
19:56 12.9 °F /  -10.6 °C 2.3 °F /  -16.5 °C 30.29 in /  1025.6 hPa WNW 4.4 mph /  7.1 km/h 11.0 mph /  17.7 km/h 62 % 0.00 in /  0 mm
19:58 12.9 °F /  -10.6 °C 2.3 °F /  -16.5 °C 30.29 in /  1025.6 hPa NW 4.6 mph /  7.4 km/h 12.7 mph /  20.4 km/h 62 % 0.00 in /  0 mm
20:02 12.9 °F /  -10.6 °C 2.3 °F /  -16.5 °C 30.29 in /  1025.6 hPa West 6.5 mph /  10.5 km/h 14.0 mph /  22.5 km/h 62 % 0.00 in /  0 mm
20:07 12.8 °F /  -10.7 °C 1.9 °F /  -16.7 °C 30.29 in /  1025.6 hPa NNW 1.8 mph /  2.9 km/h 6.9 mph /  11.1 km/h 61 % 0.00 in /  0 mm
20:12 12.8 °F /  -10.7 °C 2.2 °F /  -16.6 °C 30.29 in /  1025.6 hPa NW 5.3 mph /  8.5 km/h 11.5 mph /  18.5 km/h 62 % 0.00 in /  0 mm
20:16 12.8 °F /  -10.7 °C 2.2 °F /  -16.6 °C 30.29 in /  1025.6 hPa North 5.2 mph /  8.4 km/h 9.2 mph /  14.8 km/h 62 % 0.00 in /  0 mm
20:17 12.8 °F /  -10.7 °C 2.2 °F /  -16.6 °C 30.29 in /  1025.6 hPa WNW 4.8 mph /  7.7 km/h 11.5 mph /  18.5 km/h 62 % 0.00 in /  0 mm
20:23 12.8 °F /  -10.7 °C 1.9 °F /  -16.7 °C 30.29 in /  1025.6 hPa NW 5.9 mph /  9.5 km/h 10.4 mph /  16.7 km/h 61 % 0.00 in /  0 mm
20:25 12.7 °F /  -10.7 °C 2.1 °F /  -16.6 °C 30.29 in /  1025.6 hPa WNW 5.6 mph /  9 km/h 10.4 mph /  16.7 km/h 62 % 0.00 in /  0 mm
20:30 12.7 °F /  -10.7 °C 2.1 °F /  -16.6 °C 30.29 in /  1025.6 hPa NW 3.4 mph /  5.5 km/h 8.0 mph /  12.9 km/h 62 % 0.00 in /  0 mm
20:32 12.7 °F /  -10.7 °C 2.1 °F /  -16.6 °C 30.29 in /  1025.6 hPa WNW 3.8 mph /  6.1 km/h 6.9 mph /  11.1 km/h 62 % 0.00 in /  0 mm
20:37 12.6 °F /  -10.8 °C 1.7 °F /  -16.8 °C 30.29 in /  1025.6 hPa WNW 3.4 mph /  5.5 km/h 10.4 mph /  16.7 km/h 61 % 0.00 in /  0 mm
20:38 12.6 °F /  -10.8 °C 1.7 °F /  -16.8 °C 30.29 in /  1025.6 hPa NW 5.1 mph /  8.2 km/h 8.1 mph /  13 km/h 61 % 0.00 in /  0 mm
20:43 12.5 °F /  -10.8 °C 1.6 °F /  -16.9 °C 30.29 in /  1025.6 hPa NW 7.7 mph /  12.4 km/h 13.8 mph /  22.2 km/h 61 % 0.00 in /  0 mm
20:48 12.5 °F /  -10.8 °C 1.6 °F /  -16.9 °C 30.29 in /  1025.6 hPa NW 3.9 mph /  6.3 km/h 3.9 mph /  6.3 km/h 61 % 0.00 in /  0 mm
20:52 12.5 °F /  -10.8 °C 1.9 °F /  -16.7 °C 30.29 in /  1025.6 hPa NW 5.5 mph /  8.9 km/h 10.4 mph /  16.7 km/h 62 % 0.00 in /  0 mm
20:57 12.4 °F /  -10.9 °C 1.8 °F /  -16.8 °C 30.29 in /  1025.6 hPa NW 4.2 mph /  6.8 km/h 11.5 mph /  18.5 km/h 62 % 0.00 in /  0 mm
21:02 12.3 °F /  -10.9 °C 1.4 °F /  -17 °C 30.29 in /  1025.6 hPa NW 5.6 mph /  9 km/h 11.5 mph /  18.5 km/h 61 % 0.00 in /  0 mm
21:03 12.3 °F /  -10.9 °C 1.4 °F /  -17 °C 30.29 in /  1025.6 hPa WNW 5.9 mph /  9.5 km/h 11.5 mph /  18.5 km/h 61 % 0.00 in /  0 mm
21:05 12.3 °F /  -10.9 °C 1.4 °F /  -17 °C 30.29 in /  1025.6 hPa NNW 5.6 mph /  9 km/h 8.1 mph /  13 km/h 61 % 0.00 in /  0 mm
21:09 12.3 °F /  -10.9 °C 1.4 °F /  -17 °C 30.29 in /  1025.6 hPa NNW 6.2 mph /  10 km/h 10.0 mph /  16.1 km/h 61 % 0.00 in /  0 mm
21:14 12.3 °F /  -10.9 °C 1.4 °F /  -17 °C 30.29 in /  1025.6 hPa WNW 3.8 mph /  6.1 km/h 10.4 mph /  16.7 km/h 61 % 0.00 in /  0 mm
21:16 12.3 °F /  -10.9 °C 1.7 °F /  -16.8 °C 30.29 in /  1025.6 hPa West 5.2 mph /  8.4 km/h 10.0 mph /  16.1 km/h 62 % 0.00 in /  0 mm
21:21 12.2 °F /  -11 °C 1.7 °F /  -16.8 °C 30.29 in /  1025.6 hPa WNW 7.1 mph /  11.4 km/h 12.7 mph /  20.4 km/h 62 % 0.00 in /  0 mm
21:25 12.2 °F /  -11 °C 1.3 °F /  -17.1 °C 30.29 in /  1025.6 hPa NW 1.9 mph /  3.1 km/h 8.1 mph /  13 km/h 61 % 0.00 in /  0 mm
21:26 12.2 °F /  -11 °C 1.3 °F /  -17.1 °C 30.29 in /  1025.6 hPa NNW 5.6 mph /  9 km/h 8.1 mph /  13 km/h 61 % 0.00 in /  0 mm
21:30 12.2 °F /  -11 °C 1.7 °F /  -16.8 °C 30.29 in /  1025.6 hPa WNW 5.4 mph /  8.7 km/h 10.4 mph /  16.7 km/h 62 % 0.00 in /  0 mm
21:31 12.2 °F /  -11 °C 1.7 °F /  -16.8 °C 30.30 in /  1026 hPa WNW 5.9 mph /  9.5 km/h 10.4 mph /  16.7 km/h 62 % 0.00 in /  0 mm
21:36 12.1 °F /  -11.1 °C 1.9 °F /  -16.7 °C 30.29 in /  1025.6 hPa NNW 5.6 mph /  9 km/h 13.8 mph /  22.2 km/h 63 % 0.00 in /  0 mm
21:37 12.1 °F /  -11.1 °C 1.6 °F /  -16.9 °C 30.29 in /  1025.6 hPa NNW 4.5 mph /  7.2 km/h 13.8 mph /  22.2 km/h 62 % 0.00 in /  0 mm
21:42 12.1 °F /  -11.1 °C 2.2 °F /  -16.6 °C 30.30 in /  1026 hPa NNW 5.9 mph /  9.5 km/h 10.4 mph /  16.7 km/h 64 % 0.00 in /  0 mm
21:47 12.0 °F /  -11.1 °C 1.8 °F /  -16.8 °C 30.29 in /  1025.6 hPa NW 3.9 mph /  6.3 km/h 6.9 mph /  11.1 km/h 63 % 0.00 in /  0 mm
21:48 12.0 °F /  -11.1 °C 1.8 °F /  -16.8 °C 30.29 in /  1025.6 hPa NW 7.5 mph /  12.1 km/h 11.5 mph /  18.5 km/h 63 % 0.00 in /  0 mm
21:50 11.9 °F /  -11.2 °C 1.0 °F /  -17.2 °C 30.29 in /  1025.6 hPa North 5.5 mph /  8.9 km/h 11.5 mph /  18.5 km/h 61 % 0.00 in /  0 mm
21:53 11.9 °F /  -11.2 °C 1.4 °F /  -17 °C 30.29 in /  1025.6 hPa NW 5.9 mph /  9.5 km/h 9.2 mph /  14.8 km/h 62 % 0.00 in /  0 mm
21:58 11.9 °F /  -11.2 °C 1.4 °F /  -17 °C 30.29 in /  1025.6 hPa NW 2.9 mph /  4.7 km/h 5.8 mph /  9.3 km/h 62 % 0.00 in /  0 mm
22:00 11.9 °F /  -11.2 °C 1.7 °F /  -16.8 °C 30.29 in /  1025.6 hPa WNW 2.6 mph /  4.2 km/h 5.8 mph /  9.3 km/h 63 % 0.00 in /  0 mm
22:05 11.8 °F /  -11.2 °C 1.6 °F /  -16.9 °C 30.29 in /  1025.6 hPa NW 3.4 mph /  5.5 km/h 9.2 mph /  14.8 km/h 63 % 0.00 in /  0 mm
22:07 11.8 °F /  -11.2 °C 1.6 °F /  -16.9 °C 30.29 in /  1025.6 hPa WNW 4.9 mph /  7.9 km/h 16.1 mph /  25.9 km/h 63 % 0.00 in /  0 mm
22:13 11.8 °F /  -11.2 °C 1.3 °F /  -17.1 °C 30.29 in /  1025.6 hPa WNW 7.1 mph /  11.4 km/h 11.5 mph /  18.5 km/h 62 % 0.00 in /  0 mm
22:18 11.8 °F /  -11.2 °C 1.6 °F /  -16.9 °C 30.30 in /  1026 hPa NW 5.1 mph /  8.2 km/h 10.4 mph /  16.7 km/h 63 % 0.00 in /  0 mm
22:22 11.8 °F /  -11.2 °C 2.3 °F /  -16.5 °C 30.30 in /  1026 hPa WNW 6.0 mph /  9.7 km/h 10.4 mph /  16.7 km/h 65 % 0.00 in /  0 mm
22:27 11.8 °F /  -11.2 °C 2.3 °F /  -16.5 °C 30.30 in /  1026 hPa North 3.5 mph /  5.6 km/h 11.5 mph /  18.5 km/h 65 % 0.00 in /  0 mm
22:32 11.7 °F /  -11.3 °C 2.2 °F /  -16.6 °C 30.30 in /  1026 hPa NNW 6.5 mph /  10.5 km/h 11.5 mph /  18.5 km/h 65 % 0.00 in /  0 mm
22:33 11.7 °F /  -11.3 °C 2.2 °F /  -16.6 °C 30.30 in /  1026 hPa North 7.0 mph /  11.3 km/h 11.5 mph /  18.5 km/h 65 % 0.00 in /  0 mm
22:34 11.7 °F /  -11.3 °C 1.9 °F /  -16.7 °C 30.30 in /  1026 hPa NNW 6.4 mph /  10.3 km/h 11.5 mph /  18.5 km/h 64 % 0.00 in /  0 mm
22:39 11.6 °F /  -11.3 °C 2.1 °F /  -16.6 °C 30.30 in /  1026 hPa North 5.8 mph /  9.3 km/h 11.5 mph /  18.5 km/h 65 % 0.00 in /  0 mm
22:44 11.6 °F /  -11.3 °C 1.8 °F /  -16.8 °C 30.30 in /  1026 hPa NNW 4.0 mph /  6.4 km/h 8.1 mph /  13 km/h 64 % 0.00 in /  0 mm
22:48 11.6 °F /  -11.3 °C 2.1 °F /  -16.6 °C 30.30 in /  1026 hPa NNW 8.2 mph /  13.2 km/h 11.5 mph /  18.5 km/h 65 % 0.00 in /  0 mm
22:53 11.5 °F /  -11.4 °C 1.3 °F /  -17.1 °C 30.30 in /  1026 hPa NW 5.8 mph /  9.3 km/h 11.5 mph /  18.5 km/h 63 % 0.00 in /  0 mm
22:58 11.4 °F /  -11.4 °C 1.6 °F /  -16.9 °C 30.30 in /  1026 hPa NW 4.9 mph /  7.9 km/h 7.0 mph /  11.3 km/h 64 % 0.00 in /  0 mm
23:03 11.4 °F /  -11.4 °C 1.6 °F /  -16.9 °C 30.30 in /  1026 hPa NNW 3.2 mph /  5.1 km/h 16.0 mph /  25.7 km/h 64 % 0.00 in /  0 mm
23:08 11.4 °F /  -11.4 °C 1.9 °F /  -16.7 °C 30.30 in /  1026 hPa NW 6.0 mph /  9.7 km/h 14.0 mph /  22.5 km/h 65 % 0.00 in /  0 mm
23:09 11.4 °F /  -11.4 °C 1.9 °F /  -16.7 °C 30.30 in /  1026 hPa NW 6.4 mph /  10.3 km/h 6.9 mph /  11.1 km/h 65 % 0.00 in /  0 mm
23:14 11.3 °F /  -11.5 °C 1.5 °F /  -16.9 °C 30.30 in /  1026 hPa North 6.1 mph /  9.8 km/h 11.5 mph /  18.5 km/h 64 % 0.00 in /  0 mm
23:17 11.3 °F /  -11.5 °C 1.8 °F /  -16.8 °C 30.30 in /  1026 hPa WNW 2.9 mph /  4.7 km/h 5.0 mph /  8 km/h 65 % 0.00 in /  0 mm
23:22 11.2 °F /  -11.6 °C 2.0 °F /  -16.7 °C 30.31 in /  1026.3 hPa North 5.1 mph /  8.2 km/h 9.2 mph /  14.8 km/h 66 % 0.00 in /  0 mm
23:23 11.2 °F /  -11.6 °C 2.0 °F /  -16.7 °C 30.30 in /  1026 hPa NW 4.0 mph /  6.4 km/h 9.2 mph /  14.8 km/h 66 % 0.00 in /  0 mm
23:28 11.2 °F /  -11.6 °C 2.0 °F /  -16.7 °C 30.30 in /  1026 hPa North 3.8 mph /  6.1 km/h 7.0 mph /  11.3 km/h 66 % 0.00 in /  0 mm
23:31 11.2 °F /  -11.6 °C 2.0 °F /  -16.7 °C 30.31 in /  1026.3 hPa NNW 7.4 mph /  11.9 km/h 12.7 mph /  20.4 km/h 66 % 0.00 in /  0 mm
23:35 11.1 °F /  -11.6 °C 1.6 °F /  -16.9 °C 30.30 in /  1026 hPa NNW 5.5 mph /  8.9 km/h 9.2 mph /  14.8 km/h 65 % 0.00 in /  0 mm
23:37 11.1 °F /  -11.6 °C 1.6 °F /  -16.9 °C 30.30 in /  1026 hPa NW 1.4 mph /  2.3 km/h 3.5 mph /  5.6 km/h 65 % 0.00 in /  0 mm
23:40 11.1 °F /  -11.6 °C 1.6 °F /  -16.9 °C 30.30 in /  1026 hPa NW 4.5 mph /  7.2 km/h 6.9 mph /  11.1 km/h 65 % 0.00 in /  0 mm
23:45 11.0 °F /  -11.7 °C 1.5 °F /  -16.9 °C 30.30 in /  1026 hPa NNW 5.6 mph /  9 km/h 10.4 mph /  16.7 km/h 65 % 0.00 in /  0 mm
23:50 10.9 °F /  -11.7 °C 1.4 °F /  -17 °C 30.30 in /  1026 hPa NW 6.2 mph /  10 km/h 9.2 mph /  14.8 km/h 65 % 0.00 in /  0 mm
23:52 10.9 °F /  -11.7 °C 1.4 °F /  -17 °C 30.30 in /  1026 hPa NW 10.3 mph /  16.6 km/h 15.0 mph /  24.1 km/h 65 % 0.00 in /  0 mm
23:57 10.9 °F /  -11.7 °C 1.4 °F /  -17 °C 30.30 in /  1026 hPa NW 5.3 mph /  8.5 km/h 12.7 mph /  20.4 km/h 65 % 0.00 in /  0 mm
23:58 10.9 °F /  -11.7 °C 1.4 °F /  -17 °C 30.30 in /  1026 hPa NNW 4.5 mph /  7.2 km/h 11.5 mph /  18.5 km/h 65 % 0.00 in /  0 mm
Crab Meadow Weather
Compliments of Weather Underground - 3.5 mb

Script developed by  Jim McMurry - jmcmurry@mwt.net Adapted for the template by  Wim van der Kuil - Leuven-Template.eu

Recycling: An estimated 80,000,000 Hershey's Kisses are wrapped each day, using enough aluminum foil to cover over 50 acres of space -- that's almost 40 football fields. All that foil is recyclable, but not many people realize it.